createdAt,value
2023-03-15T00:03:13.722Z,380.00
2023-03-15T00:07:13.834Z,385.00
2023-03-15T00:11:14.010Z,388.00
2023-03-15T00:15:14.189Z,392.00
2023-03-15T00:19:14.374Z,396.00
2023-03-15T00:23:14.510Z,400.00
2023-03-15T00:27:14.666Z,396.00
2023-03-15T00:31:14.881Z,393.00
2023-03-15T00:35:14.995Z,390.00
2023-03-15T00:39:15.181Z,397.00
2023-03-15T00:43:15.304Z,398.00
2023-03-15T00:47:15.444Z,396.00
2023-03-15T00:51:15.585Z,393.00
2023-03-15T00:55:15.747Z,390.00
2023-03-15T00:59:15.893Z,385.00
2023-03-15T01:03:16.151Z,394.00
2023-03-15T01:07:16.282Z,396.00
2023-03-15T01:11:16.460Z,399.00
2023-03-15T01:15:16.561Z,398.00
2023-03-15T01:19:16.818Z,396.00
2023-03-15T01:23:16.991Z,396.00
2023-03-15T01:27:17.197Z,398.00
2023-03-15T01:31:17.388Z,397.00
2023-03-15T01:35:17.630Z,398.00
2023-03-15T01:39:17.788Z,395.00
2023-03-15T01:43:17.962Z,391.00
2023-03-15T01:47:18.146Z,395.00
2023-03-15T01:51:18.385Z,392.00
2023-03-15T01:55:18.555Z,394.00
2023-03-15T01:59:18.743Z,392.00
2023-03-15T02:03:18.917Z,395.00
2023-03-15T02:07:19.107Z,389.00
2023-03-15T02:11:19.226Z,392.00
2023-03-15T02:15:19.465Z,391.00
2023-03-15T02:19:19.599Z,390.00
2023-03-15T02:23:20.023Z,379.00
2023-03-15T02:27:20.022Z,381.00
2023-03-15T02:31:20.246Z,378.00
2023-03-15T02:35:20.445Z,385.00
2023-03-15T02:39:20.992Z,390.00
2023-03-15T02:43:20.873Z,386.00
2023-03-15T02:47:21.081Z,387.00
2023-03-15T02:51:21.243Z,382.00
2023-03-15T02:55:21.407Z,385.00
2023-03-15T02:59:21.363Z,388.00
2023-03-15T03:03:21.336Z,388.00
2023-03-15T03:07:21.308Z,384.00
2023-03-15T03:11:21.295Z,384.00
2023-03-15T03:15:21.261Z,379.00
2023-03-15T03:19:21.229Z,381.00
2023-03-15T03:23:21.155Z,380.00
2023-03-15T03:27:21.106Z,384.00
2023-03-15T03:31:21.166Z,389.00
2023-03-15T03:35:21.021Z,385.00
2023-03-15T03:39:21.152Z,390.00
2023-03-15T03:43:21.106Z,386.00
2023-03-15T03:47:21.098Z,385.00
2023-03-15T03:51:21.029Z,381.00
2023-03-15T03:55:21.017Z,379.00
2023-03-15T03:59:20.987Z,383.00
2023-03-15T04:03:20.937Z,381.00
2023-03-15T04:07:20.928Z,383.00
2023-03-15T04:11:20.865Z,385.00
2023-03-15T04:15:20.907Z,386.00
2023-03-15T04:19:20.769Z,386.00
2023-03-15T04:23:21.003Z,384.00
2023-03-15T04:27:20.921Z,385.00
2023-03-15T04:31:20.938Z,383.00
2023-03-15T04:35:20.877Z,386.00
2023-03-15T04:39:20.855Z,386.00
2023-03-15T04:43:20.781Z,391.00
2023-03-15T04:47:20.835Z,394.00
2023-03-15T04:51:20.735Z,393.00
2023-03-15T04:55:20.701Z,387.00
2023-03-15T04:59:20.693Z,394.00
2023-03-15T05:03:20.657Z,388.00
2023-03-15T05:07:20.737Z,389.00
2023-03-15T05:11:20.719Z,384.00
2023-03-15T05:15:20.698Z,385.00
2023-03-15T05:19:20.620Z,382.00
2023-03-15T05:27:34.633Z,373.00
2023-03-15T05:31:34.606Z,381.00
2023-03-15T05:35:34.597Z,380.00
2023-03-15T05:39:34.504Z,379.00
2023-03-15T05:43:34.466Z,379.00
2023-03-15T05:47:34.432Z,379.00
2023-03-15T05:51:34.375Z,379.00
2023-03-15T05:55:34.370Z,380.00
2023-03-15T05:59:34.305Z,382.00
2023-03-15T06:03:34.313Z,379.00
2023-03-15T06:07:34.441Z,374.00
2023-03-15T06:11:34.437Z,379.00
2023-03-15T06:15:34.394Z,379.00
2023-03-15T06:19:35.769Z,382.00
2023-03-15T06:23:34.583Z,379.00
2023-03-15T06:27:34.522Z,375.00
2023-03-15T06:31:34.485Z,380.00
2023-03-15T06:35:34.935Z,417.00
2023-03-15T06:39:34.963Z,537.00
2023-03-15T06:43:34.951Z,555.00
2023-03-15T06:47:34.540Z,632.00
2023-03-15T06:51:34.330Z,726.00
2023-03-15T06:55:34.383Z,743.00
2023-03-15T06:59:34.406Z,759.00
2023-03-15T07:03:34.422Z,775.00
2023-03-15T07:07:34.210Z,796.00
2023-03-15T07:11:34.372Z,822.00
2023-03-15T07:15:44.844Z,825.00
2023-03-15T07:19:35.795Z,841.00
2023-03-15T07:23:34.068Z,847.00
2023-03-15T07:27:33.988Z,869.00
2023-03-15T07:31:34.056Z,870.00
2023-03-15T07:35:33.946Z,872.00
2023-03-15T07:39:33.876Z,732.00
2023-03-15T07:43:33.838Z,595.00
2023-03-15T07:47:33.797Z,652.00
2023-03-15T07:51:33.925Z,683.00
2023-03-15T07:55:33.707Z,724.00
2023-03-15T07:59:33.677Z,747.00
2023-03-15T08:03:33.660Z,703.00
2023-03-15T08:07:33.638Z,743.00
2023-03-15T08:11:33.585Z,753.00
2023-03-15T08:15:33.698Z,785.00
2023-03-15T08:19:33.928Z,809.00
2023-03-15T08:23:34.426Z,822.00
2023-03-15T08:27:34.233Z,833.00
2023-03-15T08:31:34.411Z,847.00
2023-03-15T08:35:35.501Z,557.00
2023-03-15T08:39:34.583Z,595.00
2023-03-15T08:43:34.611Z,634.00
2023-03-15T08:47:34.782Z,645.00
2023-03-15T08:51:34.909Z,666.00
2023-03-15T08:55:34.995Z,687.00
2023-03-15T08:59:35.121Z,711.00
2023-03-15T09:03:35.147Z,739.00
2023-03-15T09:07:35.067Z,757.00
2023-03-15T09:11:35.005Z,765.00
2023-03-15T09:15:34.945Z,782.00
2023-03-15T09:19:34.914Z,793.00
2023-03-15T09:23:34.948Z,804.00
2023-03-15T09:27:34.880Z,649.00
2023-03-15T09:31:34.812Z,465.00
2023-03-15T09:35:35.060Z,405.00
2023-03-15T09:39:34.779Z,391.00
2023-03-15T09:43:34.963Z,388.00
2023-03-15T09:47:34.655Z,455.00
2023-03-15T09:51:34.652Z,525.00
2023-03-15T09:55:34.626Z,591.00
2023-03-15T09:59:34.558Z,704.00
2023-03-15T10:03:35.023Z,680.00
2023-03-15T10:07:34.987Z,698.00
2023-03-15T10:11:34.793Z,726.00
2023-03-15T10:15:34.953Z,747.00
2023-03-15T10:19:35.152Z,763.00
2023-03-15T10:23:35.149Z,812.00
2023-03-15T10:27:35.217Z,825.00
2023-03-15T10:31:44.193Z,836.00
2023-03-15T10:35:36.530Z,842.00
2023-03-15T10:39:35.278Z,863.00
2023-03-15T10:43:35.521Z,885.00
2023-03-15T10:47:35.689Z,895.00
2023-03-15T10:51:36.035Z,909.00
2023-03-15T10:55:35.819Z,915.00
2023-03-15T10:59:36.023Z,932.00
2023-03-15T11:03:36.056Z,943.00
2023-03-15T11:07:35.729Z,954.00
2023-03-15T11:11:35.737Z,958.00
2023-03-15T11:15:35.732Z,959.00
2023-03-15T11:19:35.658Z,957.00
2023-03-15T11:23:35.590Z,963.00
2023-03-15T11:27:36.552Z,918.00
2023-03-15T11:31:35.613Z,913.00
2023-03-15T11:35:35.491Z,904.00
2023-03-15T11:39:35.430Z,886.00
2023-03-15T11:43:35.401Z,867.00
2023-03-15T11:47:35.545Z,851.00
2023-03-15T11:51:35.516Z,859.00
2023-03-15T11:55:35.562Z,866.00
2023-03-15T11:59:35.653Z,922.00
2023-03-15T12:03:36.093Z,923.00
2023-03-15T12:07:35.628Z,943.00
2023-03-15T12:11:35.605Z,950.00
2023-03-15T12:15:35.696Z,959.00
2023-03-15T12:19:36.012Z,820.00
2023-03-15T12:23:35.783Z,659.00
2023-03-15T12:27:35.992Z,550.00
2023-03-15T12:31:36.175Z,577.00
2023-03-15T12:35:36.261Z,583.00
2023-03-15T12:39:36.266Z,579.00
2023-03-15T12:43:36.385Z,569.00
2023-03-15T12:47:36.356Z,556.00
2023-03-15T12:51:36.269Z,542.00
2023-03-15T12:55:36.276Z,541.00
2023-03-15T12:59:36.230Z,530.00
2023-03-15T13:03:36.608Z,550.00
2023-03-15T13:07:50.278Z,696.00
2023-03-15T13:11:37.142Z,784.00
2023-03-15T13:15:36.174Z,799.00
2023-03-15T13:19:36.043Z,830.00
2023-03-15T13:23:36.011Z,840.00
2023-03-15T13:27:36.012Z,856.00
2023-03-15T13:31:36.026Z,893.00
2023-03-15T13:35:35.930Z,907.00
2023-03-15T13:39:35.994Z,919.00
2023-03-15T13:43:36.558Z,974.00
2023-03-15T13:47:36.350Z,951.00
2023-03-15T13:51:36.339Z,942.00
2023-03-15T13:55:36.218Z,932.00
2023-03-15T13:59:36.535Z,813.00
2023-03-15T14:03:36.172Z,802.00
2023-03-15T14:07:36.153Z,838.00
2023-03-15T14:11:36.572Z,870.00
2023-03-15T14:15:36.042Z,883.00
2023-03-15T14:19:36.042Z,884.00
2023-03-15T14:23:36.011Z,880.00
2023-03-15T14:27:35.928Z,894.00
2023-03-15T14:31:35.914Z,892.00
2023-03-15T14:35:35.922Z,901.00
2023-03-15T14:39:35.848Z,897.00
2023-03-15T14:43:35.765Z,886.00
2023-03-15T14:47:42.742Z,923.00
2023-03-15T14:51:36.781Z,893.00
2023-03-15T14:55:35.695Z,883.00
2023-03-15T14:59:35.672Z,863.00
2023-03-15T15:03:35.606Z,836.00
2023-03-15T15:07:35.550Z,808.00
2023-03-15T15:11:35.624Z,785.00
2023-03-15T15:15:51.764Z,754.00
2023-03-15T15:19:36.652Z,738.00
2023-03-15T15:23:41.880Z,716.00
2023-03-15T15:27:36.601Z,697.00
2023-03-15T15:31:35.577Z,666.00
2023-03-15T15:35:35.524Z,644.00
2023-03-15T15:39:35.446Z,615.00
2023-03-15T15:43:35.478Z,583.00
2023-03-15T15:47:35.575Z,567.00
2023-03-15T15:51:35.773Z,547.00
2023-03-15T15:55:35.964Z,534.00
2023-03-15T15:59:35.995Z,517.00
2023-03-15T16:03:35.933Z,510.00
2023-03-15T16:07:35.884Z,505.00
2023-03-15T16:11:35.852Z,501.00
2023-03-15T16:15:35.846Z,497.00
2023-03-15T16:19:35.758Z,497.00
2023-03-15T16:23:35.749Z,496.00
2023-03-15T16:27:35.701Z,493.00
2023-03-15T16:31:35.746Z,489.00
2023-03-15T16:35:35.753Z,486.00
2023-03-15T16:39:35.755Z,482.00
2023-03-15T16:43:35.718Z,474.00
2023-03-15T16:47:35.714Z,474.00
2023-03-15T16:51:35.697Z,477.00
2023-03-15T16:55:35.595Z,471.00
2023-03-15T16:59:35.564Z,468.00
2023-03-15T17:03:35.520Z,472.00
2023-03-15T17:07:35.463Z,475.00
2023-03-15T17:11:35.472Z,470.00
2023-03-15T17:15:35.428Z,473.00
2023-03-15T17:19:35.377Z,475.00
2023-03-15T17:23:35.331Z,476.00
2023-03-15T17:27:35.325Z,472.00
2023-03-15T17:31:35.331Z,467.00
2023-03-15T17:35:35.288Z,467.00
2023-03-15T17:39:35.223Z,465.00
2023-03-15T17:43:35.172Z,467.00
2023-03-15T17:47:35.102Z,465.00
2023-03-15T17:51:35.100Z,463.00
2023-03-15T17:55:35.261Z,460.00
2023-03-15T17:59:35.055Z,459.00
2023-03-15T18:03:35.025Z,453.00
2023-03-15T18:07:34.977Z,453.00
2023-03-15T18:11:35.001Z,452.00
2023-03-15T18:15:35.120Z,451.00
2023-03-15T18:19:35.247Z,451.00
2023-03-15T18:23:35.340Z,454.00
2023-03-15T18:27:35.526Z,461.00
2023-03-15T18:31:35.696Z,452.00
2023-03-15T18:35:35.807Z,451.00
2023-03-15T18:39:35.893Z,445.00
2023-03-15T18:43:36.028Z,442.00
2023-03-15T18:47:36.153Z,444.00
2023-03-15T18:51:36.312Z,443.00
2023-03-15T18:55:36.452Z,444.00
2023-03-15T18:59:36.565Z,444.00
2023-03-15T19:03:36.697Z,456.00
2023-03-15T19:07:36.758Z,454.00
2023-03-15T19:11:36.870Z,457.00
2023-03-15T19:15:37.014Z,456.00
2023-03-15T19:19:37.153Z,458.00
2023-03-15T19:23:37.322Z,455.00
2023-03-15T19:27:37.515Z,455.00
2023-03-15T19:31:37.675Z,451.00
2023-03-15T19:35:37.903Z,450.00
2023-03-15T19:39:38.037Z,445.00
2023-03-15T19:43:38.234Z,446.00
2023-03-15T19:47:38.418Z,443.00
2023-03-15T19:51:38.589Z,445.00
2023-03-15T19:55:38.793Z,440.00
2023-03-15T19:59:38.949Z,441.00
2023-03-15T20:03:39.222Z,447.00
2023-03-15T20:07:39.316Z,444.00
2023-03-15T20:11:39.488Z,442.00
2023-03-15T20:15:39.748Z,442.00
2023-03-15T20:19:39.919Z,438.00
2023-03-15T20:23:40.102Z,442.00
2023-03-15T20:27:40.317Z,446.00
2023-03-15T20:31:40.557Z,440.00
2023-03-15T20:35:40.697Z,441.00
2023-03-15T20:39:40.917Z,439.00
2023-03-15T20:43:41.166Z,440.00
2023-03-15T20:47:41.396Z,440.00
2023-03-15T20:51:41.300Z,438.00
2023-03-15T20:55:41.291Z,438.00
2023-03-15T20:59:42.191Z,441.00
2023-03-15T21:03:41.250Z,440.00
2023-03-15T21:07:41.159Z,440.00
2023-03-15T21:11:41.097Z,442.00
2023-03-15T21:15:41.053Z,442.00
2023-03-15T21:19:40.999Z,442.00
2023-03-15T21:23:41.176Z,444.00
2023-03-15T21:27:41.112Z,439.00
2023-03-15T21:31:41.190Z,439.00
2023-03-15T21:35:41.167Z,439.00
2023-03-15T21:39:40.991Z,439.00
2023-03-15T21:43:40.957Z,440.00
2023-03-15T21:47:40.961Z,442.00
2023-03-15T21:51:40.881Z,437.00
2023-03-15T21:55:40.863Z,431.00
2023-03-15T21:59:40.821Z,430.00
2023-03-15T22:03:40.809Z,429.00
2023-03-15T22:07:40.992Z,433.00
2023-03-15T22:11:41.116Z,437.00
2023-03-15T22:15:41.306Z,434.00
2023-03-15T22:19:41.462Z,438.00
2023-03-15T22:23:41.609Z,437.00
2023-03-15T22:27:41.714Z,439.00
2023-03-15T22:31:41.825Z,439.00
2023-03-15T22:35:42.048Z,439.00
2023-03-15T22:39:42.094Z,440.00
2023-03-15T22:43:42.262Z,438.00
2023-03-15T22:47:42.413Z,440.00
2023-03-15T22:51:42.628Z,436.00
2023-03-15T22:55:42.800Z,438.00
2023-03-15T22:59:42.990Z,440.00
2023-03-15T23:03:43.175Z,439.00
2023-03-15T23:07:43.369Z,435.00
2023-03-15T23:11:43.478Z,436.00
2023-03-15T23:15:43.702Z,435.00
2023-03-15T23:19:43.712Z,434.00
2023-03-15T23:23:43.833Z,434.00
2023-03-15T23:27:43.908Z,433.00
2023-03-15T23:31:44.255Z,430.00
2023-03-15T23:35:44.350Z,436.00
2023-03-15T23:39:44.447Z,431.00
2023-03-15T23:43:44.573Z,432.00
2023-03-15T23:47:44.619Z,431.00
2023-03-15T23:51:44.578Z,427.00
2023-03-15T23:55:44.659Z,430.00
2023-03-15T23:59:44.684Z,429.00
